Time;durP1;ratioP1;P1;durP2;ratioP2;P2;SDS_P1;SDS_P2;PMS_P1;PMS_P2;Temp;Humidity;BMP_temperature;BMP_pressure;BME280_temperature;BME280_humidity;BME280_pressure;Samples;Min_cycle;Max_cycle;Signal;HPM_P1;HPM_P2
2021/06/09 00:00:22;;;;;;;28.58;20.13;;;;;;;16.69;75.66;96625.25;5031245;28;20496;-76
2021/06/09 00:02:50;;;;;;;27.33;19.90;;;;;;;16.70;75.15;96621.34;5030808;28;20045;-76
2021/06/09 00:05:16;;;;;;;27.75;20.35;;;;;;;16.58;75.28;96619.44;5031294;28;20049;-76
2021/06/09 00:07:42;;;;;;;25.42;20.08;;;;;;;16.54;75.53;96624.03;5031648;28;20064;-78
2021/06/09 00:10:09;;;;;;;24.48;18.88;;;;;;;16.51;75.74;96626.72;5031241;28;20048;-76
2021/06/09 00:12:35;;;;;;;26.17;18.98;;;;;;;16.49;75.75;96627.03;5031795;28;20049;-76
2021/06/09 00:15:02;;;;;;;25.38;18.95;;;;;;;16.51;75.77;96629.47;5031475;28;20038;-76
2021/06/09 00:17:28;;;;;;;26.80;19.10;;;;;;;16.55;75.91;96622.09;5031437;28;20052;-78
2021/06/09 00:19:55;;;;;;;26.88;20.33;;;;;;;16.60;75.77;96632.84;5031672;28;20038;-76
2021/06/09 00:22:21;;;;;;;22.98;18.13;;;;;;;16.59;75.44;96620.25;5031067;28;20053;-76
2021/06/09 00:24:47;;;;;;;28.67;20.25;;;;;;;16.57;75.14;96617.06;5031280;28;20052;-76
2021/06/09 00:27:13;;;;;;;27.90;19.33;;;;;;;16.51;75.46;96618.47;5046421;28;20121;-76
2021/06/09 00:29:40;;;;;;;26.02;19.40;;;;;;;16.48;75.74;96617.19;5051334;28;20056;-76
2021/06/09 00:32:06;;;;;;;27.30;19.50;;;;;;;16.46;75.44;96621.47;5050746;28;20041;-76
2021/06/09 00:34:33;;;;;;;26.73;18.80;;;;;;;16.44;75.59;96619.88;5051118;28;20041;-75
2021/06/09 00:37:00;;;;;;;30.90;19.55;;;;;;;16.40;75.64;96618.16;5051091;28;20052;-76
2021/06/09 00:39:26;;;;;;;26.13;19.17;;;;;;;16.41;75.95;96608.75;5050857;28;20052;-77
2021/06/09 00:41:52;;;;;;;25.75;19.48;;;;;;;16.42;75.68;96610.34;5051038;28;20569;-76
2021/06/09 00:44:18;;;;;;;23.38;18.70;;;;;;;16.42;75.40;96611.16;5050561;28;20060;-76
2021/06/09 00:46:44;;;;;;;25.38;19.45;;;;;;;16.39;75.59;96613.78;5051064;28;20128;-76
2021/06/09 00:49:11;;;;;;;23.85;18.58;;;;;;;16.34;75.85;96617.59;5050467;28;20515;-76
2021/06/09 00:51:37;;;;;;;28.48;19.55;;;;;;;16.33;75.93;96606.94;5050682;28;20094;-76
2021/06/09 00:54:05;;;;;;;26.42;19.08;;;;;;;16.32;75.80;96611.66;5050414;28;20056;-75
2021/06/09 00:56:32;;;;;;;28.15;19.65;;;;;;;16.28;75.72;96605.25;5040693;28;20046;-77
2021/06/09 00:58:58;;;;;;;25.15;18.25;;;;;;;16.26;75.82;96613.03;5031058;28;20045;-77
2021/06/09 01:01:26;;;;;;;28.33;19.92;;;;;;;16.22;76.06;96601.13;5030531;28;20045;-76
2021/06/09 01:03:52;;;;;;;25.13;19.27;;;;;;;16.16;76.35;96611.56;5031160;28;20057;-78
2021/06/09 01:06:19;;;;;;;26.30;19.45;;;;;;;16.20;76.43;96608.16;5030483;28;20053;-76
2021/06/09 01:08:46;;;;;;;24.92;19.42;;;;;;;16.20;76.32;96608.16;5030992;28;20041;-76
2021/06/09 01:11:16;;;;;;;25.65;18.55;;;;;;;16.21;76.41;96605.03;5030324;28;20049;-77
2021/06/09 01:13:43;;;;;;;23.75;18.73;;;;;;;16.24;76.41;96604.34;5030760;28;20406;-77
2021/06/09 01:16:09;;;;;;;25.02;19.83;;;;;;;16.26;76.34;96606.75;5034248;28;20623;-76
2021/06/09 01:18:35;;;;;;;26.95;19.42;;;;;;;16.26;76.25;96602.06;5034805;28;20492;-75
2021/06/09 01:21:03;;;;;;;25.80;19.30;;;;;;;16.27;75.97;96598.16;5034385;28;20041;-72
2021/06/09 01:23:31;;;;;;;24.70;18.90;;;;;;;16.27;75.71;96606.41;5017215;28;20049;-76
2021/06/09 01:25:58;;;;;;;24.90;19.95;;;;;;;16.27;75.74;96609.13;5035082;28;20102;-76
2021/06/09 01:28:25;;;;;;;23.75;18.73;;;;;;;16.23;75.93;96613.72;5034101;28;20033;-76
2021/06/09 01:30:53;;;;;;;24.85;19.42;;;;;;;16.17;76.15;96615.13;5034660;28;20048;-76
2021/06/09 01:33:20;;;;;;;26.70;20.55;;;;;;;16.09;76.16;96614.13;5034071;28;20041;-76
2021/06/09 01:35:48;;;;;;;28.40;19.75;;;;;;;16.08;76.44;96614.47;5034587;28;20045;-76
2021/06/09 01:38:14;;;;;;;27.98;19.88;;;;;;;16.03;76.52;96610.03;5034094;28;20054;-75
2021/06/09 01:40:42;;;;;;;28.52;20.25;;;;;;;15.95;76.99;96621.13;5034475;28;20127;-77
2021/06/09 01:43:08;;;;;;;27.20;19.80;;;;;;;15.89;77.18;96618.63;5034087;28;20042;-76
2021/06/09 01:45:35;;;;;;;28.60;19.98;;;;;;;15.87;77.33;96617.38;5034543;28;20038;-76
2021/06/09 01:48:03;;;;;;;28.02;20.35;;;;;;;15.89;77.44;96615.06;5033739;28;20045;-72
2021/06/09 01:50:30;;;;;;;27.33;19.35;;;;;;;15.93;77.74;96624.22;5034418;28;20048;-76
2021/06/09 01:52:56;;;;;;;27.00;20.13;;;;;;;15.97;77.35;96621.56;5034155;28;20043;-77
2021/06/09 01:55:25;;;;;;;32.17;20.70;;;;;;;15.98;77.58;96617.72;5033972;28;20053;-76
2021/06/09 01:57:53;;;;;;;29.42;21.20;;;;;;;16.01;77.69;96623.28;5054022;28;20045;-78
2021/06/09 02:00:27;;;;;;;25.23;19.83;;;;;;;16.07;77.38;96615.59;5053611;28;20056;-78
2021/06/09 02:02:58;;;;;;;32.45;20.73;;;;;;;16.06;76.60;96614.00;5053840;28;20045;-77
2021/06/09 02:05:25;;;;;;;28.65;20.80;;;;;;;15.99;76.80;96614.59;5053516;28;20040;-76
2021/06/09 02:07:51;;;;;;;26.02;19.92;;;;;;;15.88;77.06;96602.50;5054051;28;20041;-76
2021/06/09 02:10:20;;;;;;;24.48;19.02;;;;;;;15.82;77.44;96610.19;5053545;28;20526;-78
2021/06/09 02:12:48;;;;;;;25.88;20.33;;;;;;;15.81;77.42;96616.00;5053998;28;20049;-75
2021/06/09 02:15:18;;;;;;;28.67;20.73;;;;;;;15.81;77.56;96619.53;5053281;28;20052;-77
2021/06/09 02:17:56;;;;;;;29.08;20.95;;;;;;;15.84;77.75;96613.38;5053559;28;20504;-76
2021/06/09 02:20:22;;;;;;;28.63;21.08;;;;;;;15.91;77.79;96618.25;5053399;28;20053;-77
2021/06/09 02:22:48;;;;;;;27.48;20.50;;;;;;;15.95;77.24;96618.38;5053713;28;20045;-76
2021/06/09 02:25:15;;;;;;;29.88;20.30;;;;;;;15.95;77.14;96612.91;5053085;28;20392;-76
2021/06/09 02:27:41;;;;;;;28.52;21.15;;;;;;;15.93;77.31;96612.44;5030250;28;20064;-76
2021/06/09 02:30:08;;;;;;;26.05;19.70;;;;;;;15.95;77.32;96610.16;5033209;28;20045;-76
2021/06/09 02:32:36;;;;;;;26.17;20.88;;;;;;;15.96;77.39;96612.53;5033682;28;20046;-76
2021/06/09 02:35:03;;;;;;;26.50;20.17;;;;;;;15.97;77.26;96610.59;5032922;28;20073;-75
2021/06/09 02:37:29;;;;;;;27.77;21.42;;;;;;;16.00;77.11;96615.41;5033432;28;20053;-77
2021/06/09 02:39:55;;;;;;;27.92;21.20;;;;;;;16.03;77.02;96603.72;5033466;28;20049;-76
2021/06/09 02:42:21;;;;;;;26.17;20.35;;;;;;;16.04;76.75;96611.63;5032934;28;20536;-77
2021/06/09 02:44:48;;;;;;;31.45;21.67;;;;;;;16.05;76.89;96612.41;5032986;28;20150;-76
2021/06/09 02:47:17;;;;;;;26.75;20.88;;;;;;;16.08;77.10;96611.72;5032864;28;20057;-77
2021/06/09 02:49:47;;;;;;;28.50;20.65;;;;;;;16.11;77.09;96611.03;5033241;28;20053;-77
2021/06/09 02:52:22;;;;;;;27.13;20.77;;;;;;;16.15;76.22;96607.25;5032623;28;20054;-76
2021/06/09 02:54:54;;;;;;;29.50;20.35;;;;;;;16.17;75.97;96609.63;5032889;28;20045;-78
2021/06/09 02:57:31;;;;;;;34.25;22.60;;;;;;;16.15;76.08;96607.25;5049602;28;20060;-76
2021/06/09 03:00:01;;;;;;;26.98;20.67;;;;;;;16.17;76.41;96612.38;5033011;28;20503;-76
2021/06/09 03:02:39;;;;;;;29.10;21.23;;;;;;;16.17;75.77;96609.63;5033007;28;20041;-76
2021/06/09 03:05:14;;;;;;;31.45;21.90;;;;;;;16.16;75.59;96613.53;5032509;28;20049;-76
2021/06/09 03:07:51;;;;;;;29.15;21.38;;;;;;;16.13;76.15;96612.28;5032955;28;20044;-76
2021/06/09 03:10:25;;;;;;;30.85;22.42;;;;;;;16.12;76.48;96610.66;5032583;28;20049;-78
2021/06/09 03:13:01;;;;;;;27.45;21.30;;;;;;;16.12;76.29;96612.63;5032760;28;20500;-78
2021/06/09 03:15:40;;;;;;;28.90;21.50;;;;;;;16.16;75.85;96613.53;5032360;28;20115;-78
2021/06/09 03:18:12;;;;;;;30.42;21.48;;;;;;;16.16;75.54;96610.78;5032648;28;20045;-76
2021/06/09 03:20:50;;;;;;;29.08;21.42;;;;;;;16.12;75.72;96609.88;5032704;28;20050;-76
2021/06/09 03:23:25;;;;;;;29.42;20.92;;;;;;;16.11;76.24;96605.53;5032089;28;20056;-76
2021/06/09 03:25:57;;;;;;;29.73;21.83;;;;;;;16.10;76.55;96614.94;5037488;28;20044;-77
2021/06/09 03:28:29;;;;;;;30.13;21.73;;;;;;;16.10;76.47;96609.44;5042604;28;20053;-77
2021/06/09 03:30:59;;;;;;;28.70;21.33;;;;;;;16.08;76.42;96606.25;5032382;28;20042;-76
2021/06/09 03:33:29;;;;;;;28.20;20.92;;;;;;;16.10;76.45;96610.22;5031691;28;20046;-76
2021/06/09 03:36:04;;;;;;;31.38;22.05;;;;;;;16.10;76.50;96609.44;5032240;28;20041;-76
2021/06/09 03:38:33;;;;;;;30.33;21.10;;;;;;;16.11;76.75;96611.81;5031721;28;20057;-76
2021/06/09 03:41:02;;;;;;;27.70;21.00;;;;;;;16.13;76.14;96609.53;5032251;28;20053;-78
2021/06/09 03:43:32;;;;;;;27.90;21.60;;;;;;;16.16;75.52;96608.84;5031998;28;20045;-79
2021/06/09 03:45:59;;;;;;;28.50;21.55;;;;;;;16.09;75.16;96608.63;5031989;28;20041;-76
2021/06/09 03:48:29;;;;;;;26.88;20.02;;;;;;;16.06;75.42;96614.81;5031686;28;20045;-76
2021/06/09 03:51:00;;;;;;;27.40;20.48;;;;;;;16.04;75.45;96606.13;5032042;28;20049;-76
2021/06/09 03:53:27;;;;;;;28.15;20.55;;;;;;;15.92;75.84;96617.13;5031381;28;20038;-76
2021/06/09 03:55:57;;;;;;;27.80;20.77;;;;;;;15.77;76.74;96615.91;5037219;28;20045;-76
2021/06/09 03:58:26;;;;;;;32.55;20.95;;;;;;;15.66;77.39;96606.53;5042254;28;20045;-76
2021/06/09 04:00:54;;;;;;;28.85;21.35;;;;;;;15.67;77.32;96605.38;5032209;28;20061;-76
2021/06/09 04:03:21;;;;;;;29.90;22.17;;;;;;;15.67;77.57;96602.66;5031286;28;20037;-76
2021/06/09 04:05:48;;;;;;;30.70;22.05;;;;;;;15.69;77.46;96605.84;5031483;28;20076;-76
2021/06/09 04:08:16;;;;;;;30.95;22.27;;;;;;;15.73;77.64;96604.00;5031224;28;20046;-75
2021/06/09 04:10:45;;;;;;;27.33;21.40;;;;;;;15.73;77.67;96605.94;5031610;28;20492;-76
2021/06/09 04:13:12;;;;;;;28.20;20.50;;;;;;;15.75;77.46;96615.44;5031200;28;20080;-76
2021/06/09 04:15:39;;;;;;;31.85;22.15;;;;;;;15.69;77.82;96610.53;5031362;28;20045;-76
2021/06/09 04:18:08;;;;;;;28.75;21.90;;;;;;;15.67;77.69;96613.63;5031071;28;20080;-77
2021/06/09 04:20:35;;;;;;;31.40;21.38;;;;;;;15.68;78.14;96615.22;5031704;28;20045;-76
2021/06/09 04:23:01;;;;;;;30.10;22.05;;;;;;;15.68;77.95;96614.41;5031654;28;20052;-76
2021/06/09 04:25:29;;;;;;;30.80;22.15;;;;;;;15.66;78.05;96612.03;5033017;28;20044;-76
2021/06/09 04:27:56;;;;;;;32.88;22.50;;;;;;;15.62;78.21;96616.56;5045860;28;20401;-76
2021/06/09 04:30:23;;;;;;;29.55;22.38;;;;;;;15.63;78.53;96615.44;5030930;28;20080;-77
2021/06/09 04:32:52;;;;;;;32.70;23.83;;;;;;;15.66;78.85;96620.25;5031332;28;20128;-76
2021/06/09 04:35:19;;;;;;;28.77;21.65;;;;;;;15.74;78.72;96619.31;5030785;28;20053;-76
2021/06/09 04:37:45;;;;;;;33.00;22.27;;;;;;;15.81;78.58;96622.28;5031375;28;20045;-76
2021/06/09 04:40:16;;;;;;;32.00;23.65;;;;;;;15.84;78.29;96616.13;5030745;28;20041;-76
2021/06/09 04:42:46;;;;;;;29.15;21.90;;;;;;;15.93;78.93;96620.69;5031219;28;20049;-77
2021/06/09 04:45:13;;;;;;;30.58;23.25;;;;;;;15.98;78.19;96620.44;5030610;28;20053;-76
2021/06/09 04:47:39;;;;;;;31.20;22.75;;;;;;;16.00;78.32;96626.38;5030834;28;20133;-76
2021/06/09 04:50:07;;;;;;;30.40;22.67;;;;;;;16.03;77.88;96620.22;5030291;28;20053;-77
2021/06/09 04:52:33;;;;;;;30.30;22.73;;;;;;;16.04;77.80;96610.81;5031105;28;20048;-77
2021/06/09 04:54:59;;;;;;;28.17;21.02;;;;;;;16.03;77.74;96626.50;5030963;28;20041;-77
2021/06/09 04:57:25;;;;;;;32.00;23.02;;;;;;;16.01;78.16;96623.28;5047133;28;20041;-77
2021/06/09 04:59:52;;;;;;;29.08;22.83;;;;;;;16.05;78.07;96623.41;5031051;28;20410;-77
2021/06/09 05:02:20;;;;;;;31.50;23.73;;;;;;;16.08;77.89;96618.03;5030569;28;20068;-76
2021/06/09 05:04:46;;;;;;;29.45;22.15;;;;;;;16.11;77.87;96622.00;5030795;28;20489;-76
2021/06/09 05:07:12;;;;;;;29.70;21.90;;;;;;;16.07;77.76;96621.91;5030465;28;20053;-76
2021/06/09 05:09:38;;;;;;;31.75;22.27;;;;;;;16.05;78.04;96628.91;5030523;28;20067;-76
2021/06/09 05:12:13;;;;;;;30.55;22.13;;;;;;;16.03;78.08;96631.19;5030080;28;20045;-76
2021/06/09 05:14:46;;;;;;;32.40;22.73;;;;;;;16.00;78.26;96627.19;5030467;28;20053;-76
2021/06/09 05:17:17;;;;;;;32.03;22.17;;;;;;;16.04;78.24;96628.09;5030354;28;20061;-76
2021/06/09 05:19:46;;;;;;;30.17;22.38;;;;;;;16.04;78.40;96624.56;5030722;28;20057;-76
2021/06/09 05:22:19;;;;;;;27.45;21.13;;;;;;;16.08;78.20;96617.22;5030324;28;20054;-76
2021/06/09 05:24:47;;;;;;;28.20;21.13;;;;;;;16.12;78.30;96623.59;5030640;28;20064;-76
2021/06/09 05:27:17;;;;;;;28.58;21.20;;;;;;;16.13;77.75;96619.72;5025361;28;20041;-76
2021/06/09 05:29:44;;;;;;;29.45;21.95;;;;;;;16.16;78.29;96624.50;5048180;28;20056;-77
2021/06/09 05:32:11;;;;;;;30.58;21.67;;;;;;;16.20;78.16;96617.19;5050096;28;20041;-75
2021/06/09 05:34:40;;;;;;;28.58;21.38;;;;;;;16.22;77.67;96617.63;5050632;28;20412;-76
2021/06/09 05:37:08;;;;;;;33.25;22.05;;;;;;;16.20;78.22;96619.94;5050131;28;20060;-77
2021/06/09 05:39:37;;;;;;;28.38;22.42;;;;;;;16.21;78.19;96623.47;5050516;28;20045;-77
2021/06/09 05:42:06;;;;;;;27.10;20.85;;;;;;;16.24;78.11;96623.59;5049957;28;20475;-75
2021/06/09 05:44:32;;;;;;;31.15;22.08;;;;;;;16.32;78.20;96628.13;5050485;28;20049;-77
2021/06/09 05:46:59;;;;;;;30.95;22.58;;;;;;;16.40;78.28;96624.47;5050323;28;20394;-77
2021/06/09 05:49:26;;;;;;;28.25;21.55;;;;;;;16.49;78.02;96626.25;5050068;28;20045;-76
2021/06/09 05:51:54;;;;;;;35.92;21.13;;;;;;;16.57;77.91;96614.31;5050131;28;20496;-80
2021/06/09 05:54:21;;;;;;;30.38;21.33;;;;;;;16.66;77.69;96621.25;5050002;28;20063;-79
2021/06/09 05:56:47;;;;;;;27.98;20.13;;;;;;;16.76;77.64;96614.47;5050413;28;20037;-79
2021/06/09 05:59:14;;;;;;;32.67;20.88;;;;;;;16.88;77.28;96613.63;5035635;28;20945;-79
2021/06/09 06:01:41;;;;;;;29.75;21.27;;;;;;;16.87;76.53;96621.06;5048725;28;20511;-79
2021/06/09 06:04:07;;;;;;;28.73;21.27;;;;;;;16.88;76.53;96622.66;5050710;28;20071;-78
2021/06/09 06:06:34;;;;;;;29.75;21.50;;;;;;;16.91;76.46;96621.16;5051190;28;20061;-80
2021/06/09 06:09:03;;;;;;;27.55;21.17;;;;;;;16.94;75.96;96621.25;5050705;28;20495;-80
2021/06/09 06:11:29;;;;;;;26.42;20.23;;;;;;;16.97;76.18;96613.47;5050610;28;20048;-81
2021/06/09 06:13:55;;;;;;;31.30;21.40;;;;;;;17.01;76.89;96619.84;5050596;28;20045;-80
2021/06/09 06:16:21;;;;;;;29.92;21.65;;;;;;;17.10;76.50;96617.72;5050129;28;20052;-81
2021/06/09 06:18:49;;;;;;;26.63;21.38;;;;;;;17.20;76.90;96614.44;5050395;28;20053;-77
2021/06/09 06:21:17;;;;;;;27.58;20.33;;;;;;;17.25;76.08;96616.13;5049844;28;20106;-77
2021/06/09 06:23:44;;;;;;;27.42;20.70;;;;;;;17.32;76.39;96616.31;5053375;28;20040;-77
2021/06/09 06:26:15;;;;;;;28.20;21.67;;;;;;;17.44;76.83;96622.53;5052602;28;20408;-77
2021/06/09 06:28:41;;;;;;;26.25;20.15;;;;;;;17.54;75.99;96614.88;5040787;28;20045;-76
2021/06/09 06:31:11;;;;;;;28.38;20.92;;;;;;;17.61;76.59;96604.03;5033112;28;20053;-76
2021/06/09 06:33:39;;;;;;;29.55;21.35;;;;;;;17.71;76.56;96611.75;5033220;28;20049;-76
2021/06/09 06:36:07;;;;;;;27.45;20.50;;;;;;;17.81;75.66;96616.75;5032874;28;20046;-77
2021/06/09 06:38:36;;;;;;;28.52;20.75;;;;;;;17.92;75.41;96622.50;5033517;28;20462;-78
2021/06/09 06:41:03;;;;;;;24.75;19.05;;;;;;;17.96;73.32;96618.69;5032971;28;20048;-77
2021/06/09 06:43:30;;;;;;;25.33;19.38;;;;;;;18.02;74.45;96626.66;5033282;28;20099;-77
2021/06/09 06:45:57;;;;;;;26.98;19.20;;;;;;;18.08;73.15;96619.72;5033140;28;20046;-77
2021/06/09 06:48:23;;;;;;;26.60;20.42;;;;;;;18.13;74.08;96627.69;5032448;28;20046;-77
2021/06/09 06:50:50;;;;;;;33.92;21.92;;;;;;;18.22;74.91;96633.81;5032589;28;20459;-76
2021/06/09 06:53:16;;;;;;;29.40;20.05;;;;;;;18.34;74.31;96630.13;5031988;28;20073;-76
2021/06/09 06:55:42;;;;;;;24.08;19.00;;;;;;;18.41;72.43;96622.78;5036515;28;20045;-76
2021/06/09 06:58:09;;;;;;;27.23;19.45;;;;;;;18.51;73.43;96618.66;5045103;28;20519;-76
2021/06/09 07:00:38;;;;;;;25.48;19.27;;;;;;;18.63;71.92;96620.44;5033029;28;20049;-76
2021/06/09 07:03:08;;;;;;;26.52;19.85;;;;;;;18.63;72.34;96620.44;5032409;28;20049;-78
2021/06/09 07:05:35;;;;;;;24.77;19.63;;;;;;;18.71;72.39;96625.00;5032995;28;20052;-76
2021/06/09 07:08:02;;;;;;;24.17;19.00;;;;;;;18.80;72.13;96628.34;5032689;28;20048;-78
2021/06/09 07:10:29;;;;;;;37.20;20.98;;;;;;;18.92;72.50;96628.16;5029422;28;20049;-76
2021/06/09 07:12:59;;;;;;;30.80;20.70;;;;;;;19.02;73.73;96633.09;5030718;28;20041;-77
2021/06/09 07:15:27;;;;;;;25.58;19.52;;;;;;;19.11;71.12;96632.06;5030099;28;20053;-77
2021/06/09 07:17:57;;;;;;;26.02;20.80;;;;;;;19.16;71.45;96632.56;5031964;28;20467;-77
2021/06/09 07:20:24;;;;;;;23.65;18.80;;;;;;;19.26;70.92;96636.66;5032346;28;20053;-77
2021/06/09 07:22:52;;;;;;;23.90;17.98;;;;;;;19.38;70.82;96638.44;5032218;28;20037;-77
2021/06/09 07:25:20;;;;;;;26.88;19.52;;;;;;;19.50;71.24;96641.03;5032630;28;20128;-77
2021/06/09 07:27:50;;;;;;;25.45;19.13;;;;;;;19.61;70.04;96644.00;5051087;28;20040;-77
2021/06/09 07:30:20;;;;;;;25.13;18.95;;;;;;;19.78;71.69;96646.22;5051817;28;20053;-77
2021/06/09 07:32:47;;;;;;;26.60;19.45;;;;;;;19.80;69.35;96644.72;5052269;28;20045;-77
2021/06/09 07:35:16;;;;;;;26.00;18.20;;;;;;;19.93;69.70;96642.53;5051625;28;20049;-75
2021/06/09 07:37:44;;;;;;;25.48;18.60;;;;;;;20.06;70.04;96643.91;5052211;28;20087;-76
2021/06/09 07:40:14;;;;;;;27.27;19.95;;;;;;;20.19;69.91;96649.22;5051758;28;20041;-77
2021/06/09 07:42:44;;;;;;;24.27;17.90;;;;;;;20.30;69.78;96648.19;5042870;28;20388;-77
2021/06/09 07:45:13;;;;;;;23.92;20.38;;;;;;;20.43;68.77;96647.97;5042128;28;20041;-77
2021/06/09 07:47:43;;;;;;;28.88;20.90;;;;;;;20.53;70.57;96648.16;5031937;28;20048;-76
2021/06/09 07:50:13;;;;;;;23.20;17.85;;;;;;;20.59;69.06;96648.63;5030761;28;20071;-77
2021/06/09 07:52:42;;;;;;;20.92;17.58;;;;;;;20.76;66.33;96650.78;5031745;28;20522;-77
2021/06/09 07:55:10;;;;;;;22.75;18.30;;;;;;;20.91;68.46;96650.97;5030583;28;20524;-76
2021/06/09 07:57:39;;;;;;;22.25;16.35;;;;;;;21.02;66.35;96649.91;5048269;28;20048;-78
2021/06/09 08:00:10;;;;;;;27.50;17.50;;;;;;;21.17;67.83;96650.06;5030979;28;20037;-78
2021/06/09 08:02:37;;;;;;;19.25;16.50;;;;;;;21.29;67.14;96655.31;5031702;28;20057;-75
2021/06/09 08:05:05;;;;;;;26.25;17.88;;;;;;;21.39;67.25;96660.22;5030710;28;20065;-75
2021/06/09 08:07:31;;;;;;;23.35;16.63;;;;;;;21.55;66.63;96657.19;5031570;28;20052;-75
2021/06/09 08:09:58;;;;;;;22.45;17.83;;;;;;;21.70;65.83;96656.13;5031298;28;20444;-79
2021/06/09 08:12:24;;;;;;;24.02;16.00;;;;;;;22.21;62.55;96660.13;5031033;28;20049;-77
2021/06/09 08:14:51;;;;;;;18.65;15.35;;;;;;;23.49;58.72;96657.88;5031007;28;20504;-78
2021/06/09 08:17:22;;;;;;;17.40;14.48;;;;;;;24.84;56.91;96650.59;5031064;28;20045;-78
2021/06/09 08:19:48;;;;;;;19.65;15.40;;;;;;;25.81;51.71;96653.66;5031322;28;20050;-78
2021/06/09 08:22:14;;;;;;;18.08;15.45;;;;;;;26.58;49.92;96661.75;5030456;28;20054;-78
2021/06/09 08:24:40;;;;;;;18.80;15.25;;;;;;;27.19;45.86;96645.81;5050155;28;20049;-77
2021/06/09 08:27:07;;;;;;;23.30;15.68;;;;;;;27.38;45.89;96651.97;5050595;28;20047;-78
2021/06/09 08:29:36;;;;;;;20.65;14.73;;;;;;;27.86;47.44;96659.25;5032103;28;20045;-78
2021/06/09 08:32:04;;;;;;;18.17;13.93;;;;;;;28.16;44.77;96658.38;5030614;28;20041;-78
2021/06/09 08:34:30;;;;;;;14.45;12.32;;;;;;;28.56;45.04;96659.28;5030870;28;20049;-79
2021/06/09 08:36:56;;;;;;;18.75;13.05;;;;;;;28.88;42.00;96655.06;5031201;28;20060;-79
2021/06/09 08:39:24;;;;;;;16.92;12.93;;;;;;;29.20;42.19;96652.38;5030472;28;20060;-78
2021/06/09 08:41:51;;;;;;;15.63;11.88;;;;;;;29.51;39.90;96655.72;5030926;28;20049;-76
2021/06/09 08:44:19;;;;;;;17.70;11.70;;;;;;;29.63;39.04;96655.03;5030505;28;20056;-77
2021/06/09 08:46:45;;;;;;;15.93;11.63;;;;;;;29.53;40.17;96649.66;5030580;28;20049;-77
2021/06/09 08:49:11;;;;;;;14.02;11.30;;;;;;;29.69;42.96;96649.69;5030282;28;20132;-76
2021/06/09 08:51:38;;;;;;;16.85;11.75;;;;;;;29.65;43.57;96646.19;5030449;28;20069;-76
2021/06/09 08:54:08;;;;;;;15.77;12.60;;;;;;;29.57;42.21;96645.56;5029973;28;20051;-77
2021/06/09 08:56:36;;;;;;;13.27;11.13;;;;;;;29.22;42.78;96649.94;5050303;28;20508;-76
2021/06/09 08:59:02;;;;;;;16.40;11.07;;;;;;;29.01;42.29;96644.78;5035579;28;20049;-73
2021/06/09 09:01:31;;;;;;;15.45;11.60;;;;;;;28.91;41.93;96648.56;5030592;28;20048;-77
2021/06/09 09:03:58;;;;;;;12.73;10.80;;;;;;;29.00;43.41;96646.00;5030938;28;20164;-79
2021/06/09 09:06:24;;;;;;;19.02;12.40;;;;;;;29.05;44.85;96645.50;5030373;28;20722;-79
2021/06/09 09:08:52;;;;;;;14.10;11.68;;;;;;;29.22;41.81;96644.31;5030979;28;20041;-78
2021/06/09 09:11:19;;;;;;;14.65;11.82;;;;;;;29.18;43.33;96646.41;5029972;28;20045;-78
2021/06/09 09:13:45;;;;;;;17.85;13.65;;;;;;;28.99;41.08;96652.84;5030742;28;20093;-78
2021/06/09 09:16:11;;;;;;;18.00;12.52;;;;;;;28.65;42.90;96647.47;5029962;28;20054;-79
2021/06/09 09:18:41;;;;;;;14.20;11.27;;;;;;;28.33;43.00;96644.06;5030871;28;20054;-78
2021/06/09 09:21:09;;;;;;;17.00;13.30;;;;;;;27.97;44.91;96645.88;5029988;28;20504;-77
2021/06/09 09:23:35;;;;;;;17.10;11.43;;;;;;;27.71;46.10;96647.50;5030725;28;20049;-79
2021/06/09 09:26:22;;;;;;;16.52;12.98;;;;;;;27.51;45.76;96650.97;5036794;28;20045;-79
2021/06/09 09:28:48;;;;;;;16.58;12.60;;;;;;;27.31;50.51;96648.06;5037589;28;20053;-77
2021/06/09 09:31:16;;;;;;;15.15;10.88;;;;;;;27.22;45.88;96645.00;5029893;28;20492;-79
2021/06/09 09:33:44;;;;;;;16.23;13.10;;;;;;;27.02;47.07;96647.63;5030725;28;20050;-79
2021/06/09 09:36:27;;;;;;;16.75;12.27;;;;;;;27.00;49.28;96643.69;5031679;28;20048;-80
2021/06/09 09:38:53;;;;;;;16.60;12.35;;;;;;;26.95;48.69;96653.31;5034699;28;20049;-78
2021/06/09 09:41:20;;;;;;;16.58;12.45;;;;;;;26.94;47.24;96651.72;5034030;28;20056;-79
2021/06/09 09:43:49;;;;;;;16.15;12.35;;;;;;;26.99;48.82;96642.88;5034178;28;20415;-80
2021/06/09 09:46:17;;;;;;;18.35;11.90;;;;;;;27.01;47.80;96650.84;5033638;28;20096;-78
2021/06/09 09:48:59;;;;;;;13.10;11.15;;;;;;;26.89;47.68;96649.41;5034413;28;20082;-78
2021/06/09 09:51:26;;;;;;;17.95;11.35;;;;;;;26.85;49.64;96645.06;5033781;28;20065;-79
2021/06/09 09:53:55;;;;;;;14.52;11.02;;;;;;;26.77;46.79;96647.13;5033894;28;20069;-78
2021/06/09 09:56:22;;;;;;;18.33;11.52;;;;;;;26.54;49.07;96650.59;5042569;28;20079;-78
2021/06/09 09:58:53;;;;;;;20.30;14.95;;;;;;;26.19;50.74;96649.72;5039275;28;20471;-77
2021/06/09 10:01:21;;;;;;;15.60;12.02;;;;;;;26.09;48.02;96642.22;5033700;28;20042;-78
2021/06/09 10:03:50;;;;;;;16.05;11.45;;;;;;;26.05;50.23;96641.50;5033874;28;20128;-79
2021/06/09 10:06:17;;;;;;;16.92;12.13;;;;;;;26.15;51.58;96640.56;5033518;28;20045;-78
2021/06/09 10:08:43;;;;;;;16.60;13.20;;;;;;;25.94;50.20;96651.94;5033610;28;20052;-78
2021/06/09 10:11:10;;;;;;;15.48;12.13;;;;;;;25.66;48.62;96644.56;5033576;28;20121;-79
2021/06/09 10:13:36;;;;;;;16.73;12.15;;;;;;;25.25;50.95;96643.25;5033918;28;20049;-79
2021/06/09 10:16:02;;;;;;;17.17;12.43;;;;;;;24.94;51.31;96646.97;5033532;28;20045;-78
2021/06/09 10:18:28;;;;;;;16.67;12.70;;;;;;;24.66;50.46;96642.31;5032551;28;20061;-78
2021/06/09 10:20:56;;;;;;;18.17;13.48;;;;;;;24.50;53.12;96637.19;5033661;28;20489;-77
2021/06/09 10:23:33;;;;;;;15.15;11.65;;;;;;;24.31;53.51;96654.28;5033410;28;20073;-77
2021/06/09 10:26:07;;;;;;;20.13;12.05;;;;;;;24.13;54.05;96646.78;5039498;28;20041;-77
2021/06/09 10:28:57;;;;;;;15.80;10.75;;;;;;;24.43;55.44;96651.09;5042986;28;20099;-77
2021/06/09 10:31:24;;;;;;;13.80;10.57;;;;;;;24.67;53.96;96644.69;5033105;28;20046;-79
2021/06/09 10:33:50;;;;;;;12.82;9.73;;;;;;;24.96;51.54;96644.56;5033460;28;20558;-79
2021/06/09 10:36:18;;;;;;;14.95;9.98;;;;;;;25.24;50.65;96627.72;5032247;28;20451;-80
2021/06/09 10:38:45;;;;;;;17.00;10.77;;;;;;;25.43;49.56;96634.00;5032259;28;20048;-80
2021/06/09 10:41:13;;;;;;;15.23;11.02;;;;;;;25.45;49.94;96626.00;5032087;28;20045;-80
2021/06/09 10:43:41;;;;;;;11.25;8.93;;;;;;;25.35;48.55;96632.44;5032540;28;20716;-80
2021/06/09 10:46:08;;;;;;;14.40;10.05;;;;;;;25.23;50.96;96620.56;5031490;28;20041;-79
2021/06/09 10:48:35;;;;;;;13.75;9.45;;;;;;;25.32;47.02;96622.09;5032193;28;20543;-80
2021/06/09 10:51:01;;;;;;;15.50;10.00;;;;;;;25.37;44.77;96618.88;5031697;28;20048;-80
2021/06/09 10:53:29;;;;;;;15.75;10.65;;;;;;;25.39;47.91;96605.34;5032409;28;20045;-80
2021/06/09 10:55:56;;;;;;;12.60;9.40;;;;;;;25.56;51.53;96603.63;5038328;28;20060;-80
2021/06/09 10:58:24;;;;;;;12.68;8.90;;;;;;;25.73;46.44;96597.88;5042841;28;20501;-80
2021/06/09 11:00:51;;;;;;;11.05;9.23;;;;;;;25.94;45.31;96596.13;5029778;28;20492;-78
2021/06/09 11:03:18;;;;;;;11.55;9.35;;;;;;;26.14;44.90;96597.13;5031875;28;20060;-77
2021/06/09 11:05:44;;;;;;;13.90;10.45;;;;;;;26.26;44.57;96584.66;5032191;28;20045;-79
2021/06/09 11:08:10;;;;;;;13.40;10.48;;;;;;;26.38;43.89;96580.53;5031646;28;20049;-78
2021/06/09 11:10:42;;;;;;;14.73;9.30;;;;;;;26.43;43.87;96580.13;5032376;28;20467;-78
2021/06/09 11:13:09;;;;;;;16.23;10.50;;;;;;;26.23;44.25;96575.13;5031241;28;20041;-79
2021/06/09 11:15:35;;;;;;;15.27;10.00;;;;;;;26.01;44.67;96576.56;5032680;28;20049;-79
2021/06/09 11:18:13;;;;;;;11.85;9.38;;;;;;;25.81;45.21;96564.38;5031291;28;20046;-79
2021/06/09 11:20:40;;;;;;;12.88;9.48;;;;;;;25.60;42.15;96566.13;5032430;28;20037;-78